Terminal Aerodrome Forecast
Issued by NWS

Home | Current Version | Previous Version | Text Only | Print | Product List | Glossary On
Versions: 1 2 3 4 5 6 7 8 9 10 11 12 13 14 15 16 17 18 19 20 21 22 23 24 25 26 27 28 29 30 31 32 33 34 35 36 37 38 39 40 41 42 43 44 45 46 47 48 49
000
FTUS44 KHGX 211800 AAA
TAFIAH
TAF AMD
KIAH 211800Z 2118/2224 14013KT P6SM -SHRA BKN011 OVC025
     FM211900 14012KT P6SM VCSH SCT025 BKN035
     FM220000 12012KT P6SM SCT025 OVC050
     FM220300 11010KT P6SM BKN025
     FM220900 12010KT P6SM VCSH OVC020
     FM222100 12010G18KT P6SM VCTS BKN025CB OVC040
      TEMPO 2221/2224 3SM SHRA OVC020=

USA.gov is the U.S. government's official web portal to all federal, state and local government web resources and services.